createdAt,value
2018-09-20T00:00:33.291Z,10.68
2018-09-20T00:03:02.723Z,9.20
2018-09-20T00:05:32.158Z,8.73
2018-09-20T00:08:01.539Z,9.18
2018-09-20T00:10:30.939Z,10.25
2018-09-20T00:13:00.368Z,9.30
2018-09-20T00:15:29.746Z,9.40
2018-09-20T00:17:59.127Z,9.53
2018-09-20T00:20:28.626Z,10.40
2018-09-20T00:22:58.038Z,9.20
2018-09-20T00:25:27.411Z,10.32
2018-09-20T00:27:56.801Z,9.75
2018-09-20T00:30:26.195Z,9.48
2018-09-20T00:32:55.590Z,9.33
2018-09-20T00:35:25.010Z,10.32
2018-09-20T00:37:54.395Z,9.13
2018-09-20T00:40:23.765Z,9.95
2018-09-20T00:42:53.174Z,10.70
2018-09-20T00:45:22.559Z,10.23
2018-09-20T00:47:52.024Z,9.70
2018-09-20T00:50:21.438Z,10.00
2018-09-20T00:52:50.785Z,9.68
2018-09-20T00:55:20.237Z,10.40
2018-09-20T00:57:49.665Z,9.80
2018-09-20T01:00:19.017Z,9.90
2018-09-20T01:02:48.429Z,9.80
2018-09-20T01:05:17.823Z,10.10
2018-09-20T01:07:47.149Z,11.00
2018-09-20T01:10:16.563Z,9.98
2018-09-20T01:12:45.987Z,9.68
2018-09-20T01:15:15.456Z,9.58
2018-09-20T01:17:44.947Z,10.15
2018-09-20T01:20:14.383Z,10.10
2018-09-20T01:22:43.868Z,10.60
2018-09-20T01:25:13.260Z,10.53
2018-09-20T01:27:42.917Z,10.70
2018-09-20T01:30:12.354Z,10.70
2018-09-20T01:32:41.749Z,10.08
2018-09-20T01:35:11.090Z,10.20
2018-09-20T01:37:40.476Z,10.45
2018-09-20T01:40:09.873Z,10.72
2018-09-20T01:42:39.738Z,10.75
2018-09-20T01:45:09.209Z,10.58
2018-09-20T01:47:38.888Z,10.23
2018-09-20T01:50:08.326Z,11.10
2018-09-20T01:52:37.663Z,11.08
2018-09-20T01:55:07.159Z,12.07
2018-09-20T01:57:36.550Z,11.18
2018-09-20T02:00:06.006Z,11.00
2018-09-20T02:02:35.387Z,11.10
2018-09-20T02:05:05.087Z,10.72
2018-09-20T02:07:34.463Z,9.63
2018-09-20T02:10:03.928Z,10.32
2018-09-20T02:12:33.288Z,9.85
2018-09-20T02:15:02.712Z,10.35
2018-09-20T02:17:32.116Z,11.00
2018-09-20T02:20:01.535Z,9.63
2018-09-20T02:22:30.892Z,10.20
2018-09-20T02:25:00.320Z,10.65
2018-09-20T02:27:29.816Z,10.30
2018-09-20T02:29:59.250Z,8.93
2018-09-20T02:32:28.764Z,10.55
2018-09-20T02:34:58.118Z,11.75
2018-09-20T02:37:27.465Z,10.85
2018-09-20T02:39:56.882Z,10.03
2018-09-20T02:42:26.287Z,12.68
2018-09-20T02:44:55.749Z,11.08
2018-09-20T02:47:25.124Z,10.72
2018-09-20T02:49:54.577Z,11.08
2018-09-20T02:52:23.943Z,10.35
2018-09-20T02:54:53.356Z,11.20
2018-09-20T02:57:22.755Z,11.10
2018-09-20T02:59:52.110Z,15.35
2018-09-20T03:02:21.515Z,14.18
2018-09-20T03:04:50.928Z,11.03
2018-09-20T03:07:20.337Z,10.10
2018-09-20T03:09:49.791Z,10.58
2018-09-20T03:12:19.234Z,10.00
2018-09-20T03:14:48.631Z,9.90
2018-09-20T03:17:18.130Z,9.30
2018-09-20T03:19:48.055Z,10.55
2018-09-20T03:22:17.605Z,10.38
2018-09-20T03:24:47.053Z,11.53
2018-09-20T03:27:16.622Z,11.33
2018-09-20T03:29:46.029Z,10.32
2018-09-20T03:32:15.431Z,9.80
2018-09-20T03:34:44.816Z,10.55
2018-09-20T03:37:14.257Z,10.40
2018-09-20T03:39:43.627Z,10.58
2018-09-20T03:42:13.086Z,11.33
2018-09-20T03:44:42.539Z,10.58
2018-09-20T03:47:11.926Z,10.63
2018-09-20T03:49:41.316Z,10.53
2018-09-20T03:52:10.712Z,10.30
2018-09-20T03:54:40.114Z,11.83
2018-09-20T03:57:09.488Z,10.18
2018-09-20T03:59:38.922Z,11.15
2018-09-20T04:02:08.290Z,10.50
2018-09-20T04:04:37.695Z,10.38
2018-09-20T04:07:07.463Z,11.83
2018-09-20T04:09:37.054Z,10.80
2018-09-20T04:12:06.495Z,10.53
2018-09-20T04:14:35.976Z,11.50
2018-09-20T04:17:05.406Z,13.15
2018-09-20T04:19:34.820Z,10.93
2018-09-20T04:22:04.187Z,11.53
2018-09-20T04:24:33.564Z,11.00
2018-09-20T04:27:02.985Z,11.57
2018-09-20T04:29:32.437Z,10.68
2018-09-20T04:32:01.890Z,11.35
2018-09-20T04:34:31.379Z,12.30
2018-09-20T04:37:00.843Z,11.78
2018-09-20T04:39:30.303Z,11.70
2018-09-20T04:41:59.711Z,11.20
2018-09-20T04:44:29.131Z,10.63
2018-09-20T04:46:58.535Z,11.63
2018-09-20T04:49:27.992Z,11.65
2018-09-20T04:51:57.363Z,11.43
2018-09-20T04:54:26.766Z,10.50
2018-09-20T04:56:56.179Z,10.82
2018-09-20T04:59:25.651Z,11.20
2018-09-20T05:01:55.247Z,11.30
2018-09-20T05:04:24.663Z,13.00
2018-09-20T05:06:54.013Z,11.15
2018-09-20T05:09:23.561Z,12.85
2018-09-20T05:11:52.886Z,11.78
2018-09-20T05:14:22.277Z,11.33
2018-09-20T05:16:51.714Z,12.40
2018-09-20T05:19:21.151Z,11.15
2018-09-20T05:21:50.527Z,12.65
2018-09-20T05:24:19.960Z,12.90
2018-09-20T05:26:49.411Z,12.03
2018-09-20T05:29:18.960Z,12.73
2018-09-20T05:31:48.418Z,12.20
2018-09-20T05:34:17.858Z,11.80
2018-09-20T05:36:47.244Z,13.10
2018-09-20T05:39:16.641Z,13.10
2018-09-20T05:41:46.020Z,11.88
2018-09-20T05:44:15.438Z,11.38
2018-09-20T05:46:44.879Z,11.15
2018-09-20T05:49:14.410Z,11.88
2018-09-20T05:51:43.831Z,10.90
2018-09-20T05:54:13.260Z,12.43
2018-09-20T05:56:42.702Z,11.95
2018-09-20T05:59:12.093Z,12.47
2018-09-20T06:01:41.522Z,11.70
2018-09-20T06:04:10.819Z,12.63
2018-09-20T06:06:40.166Z,11.12
2018-09-20T06:09:10.165Z,11.55
2018-09-20T06:11:39.690Z,11.50
2018-09-20T06:14:09.086Z,11.48
2018-09-20T06:16:38.402Z,11.57
2018-09-20T06:19:07.787Z,12.65
2018-09-20T06:21:37.235Z,13.38
2018-09-20T06:24:06.681Z,13.35
2018-09-20T06:26:36.034Z,12.47
2018-09-20T06:29:05.458Z,13.78
2018-09-20T06:31:34.936Z,13.38
2018-09-20T06:34:04.523Z,12.88
2018-09-20T06:36:33.899Z,12.63
2018-09-20T06:39:05.086Z,13.60
2018-09-20T06:41:34.431Z,13.35
2018-09-20T06:44:03.837Z,13.28
2018-09-20T06:46:33.374Z,12.50
2018-09-20T06:49:02.808Z,13.38
2018-09-20T06:51:32.202Z,13.90
2018-09-20T06:54:01.550Z,12.45
2018-09-20T06:56:31.066Z,12.65
2018-09-20T06:59:00.398Z,13.62
2018-09-20T07:01:29.763Z,13.28
2018-09-20T07:03:59.092Z,13.93
2018-09-20T07:06:28.460Z,12.28
2018-09-20T07:08:57.834Z,12.68
2018-09-20T07:11:27.222Z,13.45
2018-09-20T07:13:56.620Z,12.98
2018-09-20T07:16:26.038Z,12.58
2018-09-20T07:18:55.439Z,12.65
2018-09-20T07:21:24.876Z,11.68
2018-09-20T07:23:54.277Z,12.95
2018-09-20T07:26:23.634Z,12.50
2018-09-20T07:28:53.031Z,12.82
2018-09-20T07:31:22.455Z,13.00
2018-09-20T07:33:51.832Z,13.15
2018-09-20T07:36:21.276Z,12.00
2018-09-20T07:38:50.752Z,12.75
2018-09-20T07:41:20.139Z,13.40
2018-09-20T07:43:49.585Z,12.78
2018-09-20T07:46:18.963Z,13.55
2018-09-20T07:48:48.290Z,11.80
2018-09-20T07:51:17.684Z,11.45
2018-09-20T07:53:47.272Z,12.58
2018-09-20T07:56:16.627Z,13.62
2018-09-20T07:58:45.963Z,11.88
2018-09-20T08:01:15.303Z,12.30
2018-09-20T08:03:45.396Z,12.35
2018-09-20T08:06:14.796Z,13.18
2018-09-20T08:08:44.101Z,12.55
2018-09-20T08:11:13.978Z,12.75
2018-09-20T08:13:43.355Z,12.50
2018-09-20T08:16:12.814Z,11.53
2018-09-20T08:18:42.202Z,12.40
2018-09-20T08:21:11.789Z,10.43
2018-09-20T08:23:41.090Z,11.48
2018-09-20T08:26:10.430Z,12.80
2018-09-20T08:28:39.870Z,11.80
2018-09-20T08:31:09.344Z,11.38
2018-09-20T08:33:38.734Z,11.05
2018-09-20T08:36:08.081Z,10.63
2018-09-20T08:38:37.472Z,10.70
2018-09-20T08:41:06.962Z,10.23
2018-09-20T08:43:36.444Z,10.13
2018-09-20T08:46:05.879Z,9.60
2018-09-20T08:48:35.282Z,10.38
2018-09-20T08:51:04.827Z,10.53
2018-09-20T08:53:34.109Z,9.23
2018-09-20T08:56:03.484Z,9.20
2018-09-20T08:58:33.745Z,11.75
2018-09-20T09:01:04.381Z,13.10
2018-09-20T09:03:33.741Z,9.95
2018-09-20T09:06:03.079Z,10.85
2018-09-20T09:08:32.361Z,9.70
2018-09-20T09:11:01.707Z,9.95
2018-09-20T09:13:31.083Z,9.90
2018-09-20T09:16:00.411Z,10.08
2018-09-20T09:18:29.771Z,10.40
2018-09-20T09:20:59.224Z,11.05
2018-09-20T09:23:28.595Z,9.88
2018-09-20T09:25:57.983Z,9.33
2018-09-20T09:28:27.408Z,9.63
2018-09-20T09:30:56.671Z,9.58
2018-09-20T09:33:26.059Z,9.93
2018-09-20T09:35:55.400Z,9.10
2018-09-20T09:38:24.743Z,10.05
2018-09-20T09:40:54.151Z,9.18
2018-09-20T09:43:23.492Z,9.80
2018-09-20T09:45:52.919Z,9.50
2018-09-20T09:48:22.959Z,9.30
2018-09-20T09:50:52.417Z,9.33
2018-09-20T09:53:21.924Z,9.03
2018-09-20T09:55:51.353Z,8.75
2018-09-20T09:58:20.738Z,8.98
2018-09-20T10:00:50.091Z,9.50
2018-09-20T10:03:19.483Z,8.05
2018-09-20T10:05:48.872Z,8.65
2018-09-20T10:08:18.284Z,9.33
2018-09-20T10:10:47.610Z,8.48
2018-09-20T10:13:17.024Z,8.95
2018-09-20T10:15:46.388Z,8.83
2018-09-20T10:18:15.795Z,9.05
2018-09-20T10:20:45.138Z,9.80
2018-09-20T10:23:14.520Z,9.83
2018-09-20T10:25:43.855Z,9.70
2018-09-20T10:28:13.268Z,8.50
2018-09-20T10:30:42.600Z,8.75
2018-09-20T10:33:12.003Z,9.90
2018-09-20T10:35:41.515Z,8.25
2018-09-20T10:38:10.911Z,8.83
2018-09-20T10:40:40.322Z,8.88
2018-09-20T10:43:09.703Z,9.50
2018-09-20T10:45:39.226Z,9.00
2018-09-20T10:48:08.730Z,9.70
2018-09-20T10:50:38.272Z,8.65
2018-09-20T10:53:07.712Z,8.85
2018-09-20T10:55:37.162Z,8.90
2018-09-20T10:58:06.605Z,8.50
2018-09-20T11:00:35.943Z,9.23
2018-09-20T11:03:05.337Z,8.85
2018-09-20T11:05:34.671Z,9.83
2018-09-20T11:08:04.021Z,9.03
2018-09-20T11:10:33.485Z,8.70
2018-09-20T11:13:02.868Z,7.75
2018-09-20T11:15:32.244Z,8.70
2018-09-20T11:18:01.679Z,9.03
2018-09-20T11:20:31.593Z,8.65
2018-09-20T11:23:00.956Z,9.90
2018-09-20T11:25:30.341Z,8.65
2018-09-20T11:27:59.707Z,8.05
2018-09-20T11:30:29.108Z,8.70
2018-09-20T11:32:58.481Z,9.10
2018-09-20T11:35:27.881Z,8.90
2018-09-20T11:37:57.284Z,9.00
2018-09-20T11:40:26.640Z,7.85
2018-09-20T11:42:56.013Z,8.38
2018-09-20T11:45:25.371Z,8.85
2018-09-20T11:47:54.794Z,8.40
2018-09-20T11:50:24.237Z,8.65
2018-09-20T11:52:53.650Z,8.80
2018-09-20T11:55:23.066Z,8.78
2018-09-20T11:57:52.426Z,7.90
2018-09-20T12:00:22.525Z,8.93
2018-09-20T12:02:53.132Z,8.43
2018-09-20T12:05:22.988Z,8.73
2018-09-20T12:07:52.451Z,9.05
2018-09-20T12:10:21.847Z,8.97
2018-09-20T12:12:51.368Z,8.27
2018-09-20T12:15:20.784Z,7.63
2018-09-20T12:17:50.176Z,9.43
2018-09-20T12:20:19.576Z,7.50
2018-09-20T12:22:49.020Z,7.73
2018-09-20T12:25:18.436Z,8.40
2018-09-20T12:28:17.685Z,8.87
2018-09-20T12:30:47.085Z,7.50
2018-09-20T12:33:16.513Z,8.00
2018-09-20T12:35:46.080Z,8.20
2018-09-20T12:38:15.501Z,6.97
2018-09-20T12:40:44.813Z,8.03
2018-09-20T12:43:14.223Z,8.00
2018-09-20T12:45:43.655Z,7.60
2018-09-20T12:48:13.089Z,8.07
2018-09-20T12:50:42.471Z,6.67
2018-09-20T12:53:12.134Z,7.30
2018-09-20T12:55:41.514Z,8.30
2018-09-20T12:58:10.951Z,8.23
2018-09-20T13:00:40.516Z,9.07
2018-09-20T13:03:09.930Z,10.48
2018-09-20T13:05:39.450Z,8.00
2018-09-20T13:08:09.057Z,7.83
2018-09-20T13:10:38.494Z,8.10
2018-09-20T13:13:07.963Z,7.73
2018-09-20T13:15:37.383Z,7.53
2018-09-20T13:18:06.831Z,8.10
2018-09-20T13:20:36.349Z,7.97
2018-09-20T13:23:05.782Z,8.17
2018-09-20T13:25:35.288Z,8.43
2018-09-20T13:28:04.600Z,7.83
2018-09-20T13:30:34.000Z,8.00
2018-09-20T13:33:03.473Z,7.07
2018-09-20T13:35:32.863Z,7.37
2018-09-20T13:38:02.287Z,7.17
2018-09-20T13:40:31.692Z,7.50
2018-09-20T13:43:01.090Z,8.70
2018-09-20T13:45:30.499Z,7.60
2018-09-20T13:47:59.902Z,7.80
2018-09-20T13:50:29.344Z,7.37
2018-09-20T13:52:58.807Z,6.63
2018-09-20T13:55:28.307Z,7.62
2018-09-20T13:57:58.078Z,7.23
2018-09-20T14:00:27.777Z,6.27
2018-09-20T14:02:57.256Z,6.90
2018-09-20T14:05:26.740Z,6.80
2018-09-20T14:07:56.224Z,6.73
2018-09-20T14:10:25.727Z,7.60
2018-09-20T14:12:55.287Z,7.10
2018-09-20T14:15:24.707Z,7.30
2018-09-20T14:17:54.086Z,6.97
2018-09-20T14:20:23.539Z,7.70
2018-09-20T14:22:53.073Z,6.87
2018-09-20T14:25:22.615Z,7.30
2018-09-20T14:27:52.036Z,7.07
2018-09-20T14:30:21.504Z,6.37
2018-09-20T14:32:51.100Z,7.53
2018-09-20T14:35:20.547Z,6.60
2018-09-20T14:37:50.130Z,7.00
2018-09-20T14:40:19.520Z,6.63
2018-09-20T14:42:48.934Z,6.40
2018-09-20T14:45:18.434Z,5.60
2018-09-20T14:47:48.176Z,6.87
2018-09-20T14:50:17.565Z,5.47
2018-09-20T14:52:46.961Z,6.17
2018-09-20T14:55:16.756Z,5.97
2018-09-20T14:57:46.209Z,5.60
2018-09-20T15:00:16.138Z,6.00
2018-09-20T15:02:45.691Z,6.07
2018-09-20T15:05:15.044Z,5.23
2018-09-20T15:07:44.696Z,5.43
2018-09-20T15:10:14.114Z,5.27
2018-09-20T15:12:44.588Z,6.10
2018-09-20T15:15:14.449Z,5.47
2018-09-20T15:17:43.901Z,5.67
2018-09-20T15:20:13.342Z,5.97
2018-09-20T15:22:42.974Z,6.00
2018-09-20T15:25:12.355Z,6.40
2018-09-20T15:27:41.762Z,5.57
2018-09-20T15:30:11.227Z,6.37
2018-09-20T15:32:40.691Z,5.40
2018-09-20T15:35:10.064Z,6.40
2018-09-20T15:37:39.451Z,6.60
2018-09-20T15:40:08.825Z,5.00
2018-09-20T15:42:38.273Z,6.47
2018-09-20T15:45:07.637Z,6.03
2018-09-20T15:47:37.116Z,6.57
2018-09-20T15:50:06.535Z,5.63
2018-09-20T15:52:35.909Z,5.80
2018-09-20T15:55:05.363Z,5.60
2018-09-20T15:57:34.742Z,5.67
2018-09-20T16:00:04.417Z,5.50
2018-09-20T16:02:33.803Z,6.37
2018-09-20T16:05:03.202Z,6.10
2018-09-20T16:07:32.561Z,5.83
2018-09-20T16:10:01.957Z,5.90
2018-09-20T16:12:31.432Z,8.10
2018-09-20T16:15:00.865Z,7.23
2018-09-20T16:17:30.469Z,6.63
2018-09-20T16:19:59.923Z,7.27
2018-09-20T16:22:29.471Z,8.20
2018-09-20T16:24:59.581Z,8.77
2018-09-20T16:27:29.100Z,9.35
2018-09-20T16:30:50.188Z,6.80
2018-09-20T16:33:53.333Z,6.80
2018-09-20T16:36:53.265Z,6.67
2018-09-20T16:39:25.192Z,7.08
2018-09-20T16:41:57.363Z,7.17
2018-09-20T16:44:26.881Z,7.10
2018-09-20T16:46:56.354Z,7.55
2018-09-20T16:49:25.806Z,6.58
2018-09-20T16:51:55.215Z,6.28
2018-09-20T16:54:24.660Z,7.05
2018-09-20T16:56:54.109Z,6.85
2018-09-20T16:59:23.592Z,5.83
2018-09-20T17:01:53.088Z,6.55
2018-09-20T17:04:22.567Z,6.75
2018-09-20T17:06:52.000Z,5.97
2018-09-20T17:09:21.448Z,6.12
2018-09-20T17:11:50.873Z,7.35
2018-09-20T17:14:20.284Z,6.58
2018-09-20T17:16:49.715Z,6.70
2018-09-20T17:19:19.139Z,6.62
2018-09-20T17:21:48.507Z,6.75
2018-09-20T17:24:17.906Z,6.35
2018-09-20T17:26:47.402Z,6.62
2018-09-20T17:29:16.948Z,6.87
2018-09-20T17:31:46.443Z,6.37
2018-09-20T17:34:16.122Z,9.45
2018-09-20T17:36:46.071Z,10.35
2018-09-20T17:39:16.780Z,9.65
2018-09-20T17:41:47.814Z,7.83
2018-09-20T17:44:17.233Z,7.58
2018-09-20T17:46:46.709Z,6.67
2018-09-20T17:49:16.092Z,7.95
2018-09-20T17:51:45.998Z,7.33
2018-09-20T17:54:15.930Z,6.85
2018-09-20T17:56:46.147Z,6.35
2018-09-20T17:59:15.578Z,7.30
2018-09-20T18:01:44.998Z,7.00
2018-09-20T18:04:14.342Z,7.85
2018-09-20T18:06:43.720Z,7.15
2018-09-20T18:09:13.202Z,7.20
2018-09-20T18:11:42.630Z,7.78
2018-09-20T18:14:11.969Z,8.40
2018-09-20T18:16:41.475Z,7.03
2018-09-20T18:19:10.842Z,7.12
2018-09-20T18:21:40.244Z,7.75
2018-09-20T18:24:09.783Z,8.43
2018-09-20T18:26:39.305Z,7.92
2018-09-20T18:29:08.703Z,7.58
2018-09-20T18:31:38.060Z,8.40
2018-09-20T18:34:07.564Z,9.15
2018-09-20T18:39:36.703Z,7.60
2018-09-20T18:42:06.119Z,7.92
2018-09-20T18:44:35.637Z,7.92
2018-09-20T18:47:05.111Z,8.95
2018-09-20T18:49:34.536Z,8.45
2018-09-20T18:52:03.946Z,10.43
2018-09-20T18:54:33.401Z,8.33
2018-09-20T18:57:02.795Z,8.00
2018-09-20T18:59:32.176Z,9.78
2018-09-20T19:02:01.636Z,8.00
2018-09-20T19:04:31.134Z,7.58
2018-09-20T19:07:00.639Z,8.73
2018-09-20T19:09:30.003Z,9.93
2018-09-20T19:11:59.444Z,9.85
2018-09-20T19:14:28.826Z,9.30
2018-09-20T19:16:58.172Z,10.98
2018-09-20T19:19:27.604Z,9.90
2018-09-20T19:21:56.987Z,12.80
2018-09-20T19:24:26.389Z,13.15
2018-09-20T19:26:55.774Z,15.10
2018-09-20T19:29:25.340Z,15.15
2018-09-20T19:31:54.878Z,15.25
2018-09-20T19:34:24.322Z,18.45
2018-09-20T19:36:53.692Z,19.15
2018-09-20T19:39:23.160Z,21.17
2018-09-20T19:41:52.579Z,19.20
2018-09-20T19:44:22.022Z,18.90
2018-09-20T19:46:51.399Z,17.02
2018-09-20T19:49:20.784Z,14.58
2018-09-20T19:51:50.242Z,15.53
2018-09-20T19:54:19.676Z,15.53
2018-09-20T19:56:49.764Z,14.20
2018-09-20T19:59:20.225Z,15.40
2018-09-20T20:01:49.666Z,14.13
2018-09-20T20:04:19.034Z,14.53
2018-09-20T20:06:48.416Z,13.85
2018-09-20T20:09:17.806Z,13.75
2018-09-20T20:11:47.164Z,14.47
2018-09-20T20:14:17.231Z,13.65
2018-09-20T20:16:46.664Z,13.15
2018-09-20T20:19:16.091Z,12.50
2018-09-20T20:21:45.540Z,13.05
2018-09-20T20:24:14.976Z,13.18
2018-09-20T20:26:44.372Z,12.50
2018-09-20T20:29:13.815Z,12.37
2018-09-20T20:31:43.184Z,14.15
2018-09-20T20:34:12.615Z,14.58
2018-09-20T20:36:42.101Z,15.08
2018-09-20T20:39:11.668Z,16.27
2018-09-20T20:41:41.119Z,15.93
2018-09-20T20:44:10.599Z,13.30
2018-09-20T20:46:40.056Z,15.15
2018-09-20T20:49:09.413Z,15.60
2018-09-20T20:51:38.816Z,13.88
2018-09-20T20:54:08.196Z,14.68
2018-09-20T20:56:38.060Z,14.03
2018-09-20T20:59:07.837Z,14.58
2018-09-20T21:01:37.247Z,12.05
2018-09-20T21:04:06.736Z,10.00
2018-09-20T21:06:36.122Z,11.50
2018-09-20T21:09:07.686Z,13.53
2018-09-20T21:11:37.058Z,12.05
2018-09-20T21:14:06.434Z,12.00
2018-09-20T21:16:35.953Z,11.80
2018-09-20T21:19:05.326Z,11.83
2018-09-20T21:21:34.671Z,12.18
2018-09-20T21:24:04.417Z,10.98
2018-09-20T21:26:33.809Z,10.45
2018-09-20T21:29:03.228Z,10.28
2018-09-20T21:31:32.606Z,10.88
2018-09-20T21:34:02.002Z,9.85
2018-09-20T21:36:31.447Z,10.72
2018-09-20T21:39:00.821Z,11.10
2018-09-20T21:41:30.252Z,10.13
2018-09-20T21:43:59.716Z,11.53
2018-09-20T21:46:29.209Z,10.50
2018-09-20T21:48:58.550Z,9.93
2018-09-20T21:51:28.095Z,11.97
2018-09-20T21:53:57.470Z,10.60
2018-09-20T21:56:26.788Z,11.30
2018-09-20T21:58:56.311Z,11.85
2018-09-20T22:01:25.746Z,12.30
2018-09-20T22:03:55.175Z,11.50
2018-09-20T22:06:24.582Z,9.63
2018-09-20T22:08:53.946Z,11.08
2018-09-20T22:11:23.922Z,9.90
2018-09-20T22:13:53.365Z,10.35
2018-09-20T22:16:22.979Z,9.18
2018-09-20T22:18:52.326Z,9.80
2018-09-20T22:21:21.705Z,9.40
2018-09-20T22:23:51.120Z,10.08
2018-09-20T22:26:20.509Z,10.60
2018-09-20T22:28:50.101Z,9.40
2018-09-20T22:31:20.231Z,10.90
2018-09-20T22:33:49.983Z,10.23
2018-09-20T22:36:19.389Z,9.73
2018-09-20T22:38:48.938Z,10.20
2018-09-20T22:41:18.653Z,9.98
2018-09-20T22:43:48.115Z,10.82
2018-09-20T22:46:17.499Z,10.40
2018-09-20T22:48:46.835Z,11.48
2018-09-20T22:51:16.281Z,10.10
2018-09-20T22:53:45.678Z,11.00
2018-09-20T22:56:15.136Z,9.65
2018-09-20T22:58:44.565Z,10.75
2018-09-20T23:01:17.079Z,9.90
2018-09-20T23:03:46.938Z,10.13
2018-09-20T23:06:16.344Z,10.40
2018-09-20T23:08:45.759Z,9.88
2018-09-20T23:11:15.212Z,9.83
2018-09-20T23:13:44.617Z,9.98
2018-09-20T23:16:13.932Z,11.50
2018-09-20T23:18:43.308Z,11.03
2018-09-20T23:21:12.715Z,10.72
2018-09-20T23:23:42.078Z,10.68
2018-09-20T23:26:11.462Z,10.38
2018-09-20T23:28:40.864Z,9.88
2018-09-20T23:31:10.256Z,9.98
2018-09-20T23:33:39.604Z,10.48
2018-09-20T23:36:08.998Z,10.53
2018-09-20T23:38:38.388Z,11.68
2018-09-20T23:41:07.779Z,10.40
2018-09-20T23:43:37.291Z,10.15
2018-09-20T23:46:06.782Z,10.95
2018-09-20T23:48:36.185Z,10.08
2018-09-20T23:51:05.538Z,11.80
2018-09-20T23:53:34.933Z,11.40
2018-09-20T23:56:04.436Z,11.35
2018-09-20T23:58:33.844Z,10.50
